X-preSS Mulhacen — 9HA3465 — position and weather

sailwx.info

Track history (hours):
 
Tides and Currents Weather Stations Pressure Air Temp Water Temp Dewpoint Dewpoint Depression Visibility Wind Speed Wind Dir Waves Ship Positions

X-preSS Mulhacen

Last reported at 2018-May-20 13:29 UTC. Time now 2018-May-20 13:46 UTC.
Position N 50°54' W 001°27'.

Length 142 m; draft 6 m.

Type: Ship (hazmat cat B). MMSI: 229630000.

Date/timePositionNaut miles runAvg speedWind from/ knotsBaromVisibWave heightAir tempDewpointWater temp
2018-May-20 13:29N 50°54' W 001°27'0 0.0
2018-May-20 12:59N 50°54' W 001°27'0 0.0
2018-May-20 12:29N 50°54' W 001°27'0 0.0
2018-May-20 11:59N 50°54' W 001°27'1 3.0
2018-May-20 11:30N 50°54' W 001°25'510.4
2018-May-20 11:01N 50°50' W 001°19'4 8.8
2018-May-20 10:31N 50°46' W 001°16'5 9.5
2018-May-20 10:01N 50°46' W 001°09'4 8.9
2018-May-20 09:30N 50°44' W 001°02'4 7.8
2018-May-20 09:01N 50°41' W 000°58'5 9.7
2018-May-20 08:30N 50°36' W 000°60'5 9.4
2018-May-20 08:01N 50°33' W 001°05'510.2
2018-May-20 07:30N 50°31' W 001°12'510.2
2018-May-20 07:00N 50°30' W 001°20'510.0
2018-May-20 06:30N 50°29' W 001°28'3 5.4
2018-May-20 06:01N 50°29' W 001°32'2 3.1
2018-May-20 05:31N 50°29' W 001°34'2 3.1
2018-May-20 05:00N 50°28' W 001°37'1 1.3
2018-May-20 04:30N 50°28' W 001°37'0 0.5
2018-May-20 03:54N 50°28' W 001°38'4 9.1
2018-May-20 03:30N 50°27' W 001°43'6 9.7
2018-May-20 02:55N 50°25' W 001°52'4 9.8
2018-May-20 02:30N 50°24' W 001°58'5 9.8
2018-May-20 02:01N 50°23' W 002°05'5 9.6
2018-May-20 01:29N 50°21' W 002°13'5 9.9
2018-May-20 01:00N 50°20' W 002°20'510.2
2018-May-20 00:30N 50°19' W 002°28'510.4
2018-May-20 00:00N 50°18' W 002°36'510.5
2018-May-19 23:30N 50°17' W 002°44'510.6
2018-May-19 23:00N 50°15' W 002°51'511.0
2018-May-19 22:31N 50°12' W 002°59'611.8
2018-May-19 22:00N 50°11' W 003°08'3 5.1
2018-May-19 21:31N 50°12' W 003°12'1 1.5
2018-May-19 21:00N 50°12' W 003°13'1 1.2
2018-May-19 20:30N 50°12' W 003°14'0 1.0
2018-May-19 20:00N 50°11' W 003°14'0 0.9
2018-May-19 19:30N 50°11' W 003°15'0 0.5
2018-May-19 19:01N 50°11' W 003°15'0 0.2
2018-May-19 18:30N 50°11' W 003°15'0 0.5
2018-May-19 18:01N 50°11' W 003°14'1 1.1
2018-May-19 17:30N 50°11' W 003°14'1 1.4
2018-May-19 17:01N 50°11' W 003°13'1 2.9
2018-May-19 16:30N 50°11' W 003°15'510.7
2018-May-19 16:00N 50°10' W 003°23'510.8
2018-May-19 15:30N 50°09' W 003°31'510.7
2018-May-19 15:00N 50°08' W 003°40'610.7
2018-May-19 14:30N 50°07' W 003°48'511.2
2018-May-19 14:00N 50°05' W 003°56'611.6
2018-May-19 13:30N 50°03' W 004°05'611.9
2018-May-19 13:00N 50°02' W 004°14'611.9
2018-May-19 12:30N 50°00' W 004°23'612.1
2018-May-19 12:00N 49°58' W 004°32'612.3
2018-May-19 11:30N 49°57' W 004°41'612.5
2018-May-19 11:00N 49°55' W 004°50'711.7
2018-May-19 10:23N 49°54' W 005°01'411.9
2018-May-19 10:00N 49°54' W 005°08'912.4
2018-May-19 09:19N 49°54' W 005°22'512.2
2018-May-19 08:52N 49°55' W 005°30'1212.3
2018-May-19 07:55N 49°55' W 005°48'611.9
2018-May-19 07:25N 49°56' W 005°57'7 9.0
2018-May-19 06:41N 50°02' W 006°01'210.0
2018-May-19 06:30N 50°04' W 006°01'510.0
2018-May-19 06:00N 50°09' W 006°01'5 9.8
2018-May-19 05:30N 50°13' W 006°01'510.0
2018-May-19 05:00N 50°18' W 006°01'510.1
2018-May-19 04:30N 50°23' W 006°05'510.9
2018-May-19 04:00N 50°27' W 006°11'510.9
2018-May-19 03:30N 50°30' W 006°17'510.9
2018-May-19 03:00N 50°34' W 006°23'510.8
2018-May-19 02:30N 50°38' W 006°29'510.7
2018-May-19 02:00N 50°42' W 006°36'510.0
2018-May-19 01:30N 50°45' W 006°41'510.9
2018-May-19 01:00N 50°49' W 006°47'510.9
2018-May-19 00:30N 50°53' W 006°53'510.9
2018-May-19 00:00N 50°57' W 006°59'510.9
2018-May-18 23:30N 51°01' W 007°05'510.9
2018-May-18 23:00N 51°05' W 007°11'511.0
2018-May-18 22:30N 51°08' W 007°18'611.0
2018-May-18 22:00N 51°12' W 007°24'611.1
2018-May-18 21:30N 51°16' W 007°30'611.1
2018-May-18 21:00N 51°21' W 007°36'611.1
2018-May-18 20:30N 51°25' W 007°42'611.0
2018-May-18 20:00N 51°29' W 007°48'611.1
2018-May-18 19:30N 51°33' W 007°54'611.2
2018-May-18 19:00N 51°36' W 008°01'611.1
2018-May-18 18:30N 51°40' W 008°07'510.8
2018-May-18 18:00N 51°44' W 008°13'5 9.6
2018-May-18 17:30N 51°49' W 008°16'3 6.2
2018-May-18 17:00N 51°51' W 008°20'4 8.2
2018-May-18 16:30N 51°54' W 008°24'1 1.7
2018-May-18 16:01N 51°54' W 008°25'0 0.0
2018-May-18 15:28N 51°54' W 008°25'0 0.0
2018-May-18 14:58N 51°54' W 008°25'0 0.0
2018-May-18 14:28N 51°54' W 008°25'0 0.0
2018-May-18 13:58N 51°54' W 008°25'0 0.0
2018-May-18 13:31N 51°54' W 008°25'0 0.0
2018-May-18 13:01N 51°54' W 008°25'0 0.0
2018-May-18 12:28N 51°54' W 008°25'0 0.0
2018-May-18 11:58N 51°54' W 008°25'0 0.0
2018-May-18 11:28N 51°54' W 008°25'0 0.0
2018-May-18 11:01N 51°54' W 008°25'0 0.0
2018-May-18 10:31N 51°54' W 008°25'0 0.0
2018-May-18 09:58N 51°54' W 008°25'0 0.0
2018-May-18 09:28N 51°54' W 008°25'0 0.0
2018-May-18 09:01N 51°54' W 008°25'0 0.0
2018-May-18 08:31N 51°54' W 008°25'0 0.0
2018-May-18 07:58N 51°54' W 008°25'0 0.0
2018-May-18 07:31N 51°54' W 008°25'0 0.0
2018-May-18 06:58N 51°54' W 008°25'0 0.1
2018-May-18 06:30N 51°54' W 008°25'3 5.7
2018-May-18 06:00N 51°53' W 008°21'3 6.9
2018-May-18 05:30N 51°51' W 008°16'611.2
2018-May-18 05:00N 51°45' W 008°15'3 6.8
2018-May-18 04:31N 51°44' W 008°10'510.3
2018-May-18 04:01N 51°45' W 008°02'510.6
2018-May-18 03:30N 51°47' W 007°54'510.8
2018-May-18 03:00N 51°49' W 007°46'510.8
2018-May-18 02:30N 51°50' W 007°37'611.0
2018-May-18 02:00N 51°52' W 007°29'611.3
2018-May-18 01:31N 51°54' W 007°20'611.5
2018-May-18 01:00N 51°55' W 007°11'611.6
2018-May-18 00:30N 51°57' W 007°02'611.4
2018-May-18 00:01N 51°59' W 006°53'611.1
2018-May-17 23:30N 52°00' W 006°45'611.9
2018-May-17 23:01N 52°02' W 006°36'612.0
2018-May-17 22:30N 52°05' W 006°27'611.6
2018-May-17 22:00N 52°07' W 006°18'810.3
2018-May-17 21:11N 52°11' W 006°06'6 9.8
2018-May-17 20:32N 52°17' W 006°03'010.1
2018-May-17 20:30N 52°18' W 006°03'510.2
2018-May-17 19:59N 52°23' W 006°01'1311.2
2018-May-17 18:48N 52°36' W 005°55'412.6
2018-May-17 18:28N 52°39' W 005°53'612.7
2018-May-17 18:00N 52°45' W 005°52'713.3
2018-May-17 17:30N 52°52' W 005°53'714.4
2018-May-17 17:00N 52°59' W 005°55'714.8
2018-May-17 16:30N 53°07' W 005°56'714.4
2018-May-17 16:00N 53°13' W 005°59'713.5
2018-May-17 15:30N 53°19' W 006°05'5 9.4
2018-May-17 15:00N 53°21' W 006°12'0 0.0
2018-May-17 10:49N 53°21' W 006°13'0 0.2
2018-May-17 09:30N 53°21' W 006°13'0 0.0
2018-May-17 08:57N 53°21' W 006°13'0 0.0
2018-May-17 07:45N 53°21' W 006°13'0 0.0
2018-May-17 07:18N 53°21' W 006°13'0 0.0
2018-May-17 04:37N 53°21' W 006°13'0 0.0
2018-May-17 04:30N 53°21' W 006°13'0 0.1
2018-May-16 23:59N 53°21' W 006°12'0 0.0
2018-May-16 22:50N 53°21' W 006°12'0 0.0
2018-May-16 22:20N 53°21' W 006°12'0 0.0
2018-May-16 21:53N 53°21' W 006°12'0 0.0
2018-May-16 21:14N 53°21' W 006°12'0 0.0
2018-May-16 20:44N 53°21' W 006°12'0 0.0
2018-May-16 20:20N 53°21' W 006°12'0 0.0
2018-May-16 19:20N 53°21' W 006°12'0 0.0
2018-May-16 18:47N 53°21' W 006°12'0 0.0
2018-May-16 18:17N 53°21' W 006°12'0 0.0
2018-May-16 17:05N 53°21' W 006°12'0 0.0
2018-May-16 15:56N 53°21' W 006°12'0 0.0
2018-May-16 14:08N 53°21' W 006°12'0 0.0
2018-May-16 13:56N 53°21' W 006°12'0 0.0
2018-May-16 12:32N 53°21' W 006°12'0 0.0
2018-May-16 10:23N 53°21' W 006°12'0 0.0
2018-May-16 08:14N 53°21' W 006°12'0 0.0
2018-May-16 07:53N 53°21' W 006°12'1 1.1
2018-May-16 07:01N 53°21' W 006°11'1 9.3
2018-May-16 06:57N 53°21' W 006°10'5 9.0
2018-May-16 06:26N 53°19' W 006°03'4 8.8
2018-May-16 05:58N 53°15' W 005°60'4 9.2
2018-May-16 05:30N 53°11' W 005°58'510.0
2018-May-16 05:00N 53°06' W 005°56'510.3
2018-May-16 04:30N 53°01' W 005°55'510.1
2018-May-16 04:00N 52°56' W 005°53'510.0
2018-May-16 03:30N 52°51' W 005°52'610.3
2018-May-16 02:58N 52°46' W 005°51'8211.8
2018-May-15 20:03N 51°24' W 005°52'215.2
2018-May-15 19:56N 51°22' W 005°52'614.9
2018-May-15 19:30N 51°16' W 005°52'815.0
2018-May-15 19:00N 51°08' W 005°52'815.0
2018-May-15 18:30N 51°01' W 005°53'714.9
2018-May-15 18:00N 50°53' W 005°54'814.9
2018-May-15 17:30N 50°46' W 005°53'1015.0
2018-May-15 16:51N 50°36' W 005°53'615.1
2018-May-15 16:29N 50°31' W 005°53'715.2
2018-May-15 16:00N 50°23' W 005°52'814.8
2018-May-15 15:30N 50°16' W 005°52'4410.0
2018-May-15 11:03N 49°55' W 004°51'113.4
2018-May-15 10:58N 49°55' W 004°50'613.4
2018-May-15 10:30N 49°57' W 004°40'714.8
2018-May-15 10:00N 49°59' W 004°29'612.9
2018-May-15 09:30N 50°00' W 004°20'612.5
2018-May-15 09:00N 50°02' W 004°10'612.0
2018-May-15 08:30N 50°04' W 004°01'611.3
2018-May-15 08:00N 50°05' W 003°53'611.1
2018-May-15 07:30N 50°07' W 003°44'510.5
2018-May-15 07:00N 50°08' W 003°37'510.3
2018-May-15 06:30N 50°10' W 003°29'510.6
2018-May-15 06:01N 50°12' W 003°21'510.9
2018-May-15 05:30N 50°14' W 003°13'510.9
2018-May-15 05:00N 50°15' W 003°05'611.3
2018-May-15 04:30N 50°17' W 002°57'611.8
2018-May-15 04:00N 50°19' W 002°48'612.5
2018-May-15 03:31N 50°21' W 002°39'713.0
2018-May-15 03:01N 50°26' W 002°31'714.3
2018-May-15 02:30N 50°31' W 002°24'5 9.3
2018-May-15 02:00N 50°36' W 002°25'0 0.2
2018-May-15 01:22N 50°36' W 002°25'0 0.0
2018-May-15 00:58N 50°36' W 002°25'0 0.0
2018-May-15 00:28N 50°36' W 002°25'0 0.0
2018-May-14 23:58N 50°36' W 002°25'0 0.0
2018-May-14 23:28N 50°36' W 002°25'0 0.0
2018-May-14 22:58N 50°36' W 002°25'0 0.0
2018-May-14 22:28N 50°36' W 002°25'0 0.0
2018-May-14 22:00N 50°36' W 002°25'0 0.2
2018-May-14 21:29N 50°36' W 002°25'1 2.3
2018-May-14 20:58N 50°35' W 002°23'4 8.8
2018-May-14 20:30N 50°32' W 002°19'911.7
2018-May-14 19:44N 50°30' W 002°05'311.2
2018-May-14 19:30N 50°30' W 002°01'510.6
2018-May-14 19:00N 50°32' W 001°54'611.1
2018-May-14 18:30N 50°35' W 001°46'611.7
2018-May-14 18:01N 50°38' W 001°39'610.9
2018-May-14 17:30N 50°42' W 001°33'5 9.2
2018-May-14 17:00N 50°44' W 001°26'5 9.7
2018-May-14 16:30N 50°46' W 001°20'4 8.0
2018-May-14 16:00N 50°50' W 001°20'5 9.2
2018-May-14 15:30N 50°54' W 001°25'2 2.9
2018-May-14 14:57N 50°54' W 001°27'0 0.0
2018-May-14 14:27N 50°54' W 001°27'0 0.0
2018-May-14 14:00N 50°54' W 001°27'0 0.0
2018-May-14 13:27N 50°54' W 001°27'0 0.0
2018-May-14 13:00N 50°54' W 001°27'0 0.0
2018-May-14 12:30N 50°54' W 001°27'0 0.0
2018-May-14 11:54N 50°54' W 001°27'0 0.0
2018-May-14 11:30N 50°54' W 001°27'0 0.0
2018-May-14 11:00N 50°54' W 001°27'0 0.0
2018-May-14 10:30N 50°54' W 001°27'0 0.0
2018-May-14 10:00N 50°54' W 001°27'0 0.0
2018-May-14 09:30N 50°54' W 001°27'0 0.0
2018-May-14 09:00N 50°54' W 001°27'0 0.0
2018-May-14 08:30N 50°54' W 001°27'0 0.0
2018-May-14 08:00N 50°54' W 001°27'0 0.0
2018-May-14 07:30N 50°54' W 001°27'0 0.0
2018-May-14 07:00N 50°54' W 001°27'0 0.0
2018-May-14 06:21N 50°54' W 001°27'0 0.0
2018-May-14 05:51N 50°54' W 001°27'0 0.0
2018-May-14 05:30N 50°54' W 001°27'0 0.0
2018-May-14 05:00N 50°54' W 001°27'0 0.0
2018-May-14 04:30N 50°54' W 001°27'0 0.0
2018-May-14 03:54N 50°54' W 001°27'0 0.0
2018-May-14 03:30N 50°54' W 001°27'0 0.0
2018-May-14 03:00N 50°54' W 001°27'0 0.0
2018-May-14 02:30N 50°54' W 001°27'0 0.0
2018-May-14 02:00N 50°54' W 001°27'0 0.0
2018-May-14 01:27N 50°54' W 001°27'0 0.0
2018-May-14 00:57N 50°54' W 001°27'0 0.0
2018-May-14 00:30N 50°54' W 001°27'0 0.0
2018-May-13 23:57N 50°54' W 001°27'0 0.0
2018-May-13 23:30N 50°54' W 001°27'0 0.0
2018-May-13 23:00N 50°54' W 001°27'0 0.0
2018-May-13 22:30N 50°54' W 001°27'0 0.0
2018-May-13 22:00N 50°54' W 001°27'0 0.0
2018-May-13 21:30N 50°54' W 001°27'0 0.0
2018-May-13 21:00N 50°54' W 001°27'0 0.0
2018-May-13 20:30N 50°54' W 001°27'0 0.0
2018-May-13 20:00N 50°54' W 001°27'0 0.0
2018-May-13 19:30N 50°54' W 001°27'0 0.0
2018-May-13 19:00N 50°54' W 001°27'0 0.0
2018-May-13 18:30N 50°54' W 001°27'0 0.0
2018-May-13 18:00N 50°54' W 001°27'0 0.0
2018-May-13 17:30N 50°54' W 001°27'0 0.0
2018-May-13 17:00N 50°54' W 001°27'0 0.0
2018-May-13 16:27N 50°54' W 001°27'0 0.0
2018-May-13 16:00N 50°54' W 001°27'0 0.0
2018-May-13 15:27N 50°54' W 001°27'0 0.0
2018-May-13 14:57N 50°54' W 001°27'0 0.0
2018-May-13 14:24N 50°54' W 001°27'0 0.0
2018-May-13 13:54N 50°54' W 001°27'0 0.0
2018-May-13 13:24N 50°54' W 001°27'1 3.5
2018-May-13 13:00N 50°54' W 001°25'4 8.6
2018-May-13 12:30N 50°51' W 001°20'611.6
2018-May-13 12:00N 50°47' W 001°13'510.4
2018-May-13 11:30N 50°45' W 001°06'5 9.7
2018-May-13 11:00N 50°43' W 000°59'510.4
2018-May-13 10:30N 50°37' W 000°59'510.7
2018-May-13 10:00N 50°33' W 001°03'611.4
2018-May-13 09:30N 50°31' W 001°12'510.9
2018-May-13 09:00N 50°30' W 001°20'611.8
2018-May-13 08:30N 50°29' W 001°29'814.3
2018-May-13 07:58N 50°27' W 001°41'715.2
2018-May-13 07:30N 50°25' W 001°52'815.7
2018-May-13 07:00N 50°23' W 002°04'1415.8
2018-May-13 06:06N 50°19' W 002°26'515.4
2018-May-13 05:47N 50°19' W 002°33'415.1
2018-May-13 05:30N 50°18' W 002°39'714.1
2018-May-13 05:00N 50°17' W 002°50'1 2.7
2018-May-13 04:28N 50°16' W 002°52'1 1.6
2018-May-13 04:01N 50°16' W 002°54'1 1.3
2018-May-13 03:31N 50°16' W 002°54'0 0.9
2018-May-13 03:01N 50°16' W 002°55'0 1.0
2018-May-13 02:31N 50°15' W 002°55'4 7.1
2018-May-13 02:00N 50°15' W 003°01'5 9.7
2018-May-13 01:30N 50°14' W 003°08'4 7.4
2018-May-13 01:00N 50°13' W 003°14'0 0.9
2018-May-13 00:31N 50°13' W 003°14'1 1.0
2018-May-13 00:00N 50°14' W 003°13'1 1.1
2018-May-12 23:30N 50°14' W 003°12'0 0.9
2018-May-12 23:01N 50°14' W 003°12'0 0.7
2018-May-12 22:31N 50°14' W 003°11'0 0.4
2018-May-12 22:00N 50°15' W 003°11'0 0.1
2018-May-12 21:31N 50°15' W 003°11'0 0.1
2018-May-12 21:01N 50°15' W 003°11'0 0.5
2018-May-12 20:31N 50°14' W 003°11'0 0.7
2018-May-12 20:00N 50°14' W 003°12'0 1.0
2018-May-12 19:30N 50°14' W 003°13'1 1.1
2018-May-12 19:00N 50°14' W 003°13'1 1.3
2018-May-12 18:30N 50°13' W 003°14'1 1.5
2018-May-12 18:00N 50°13' W 003°15'1 1.6
2018-May-12 17:30N 50°12' W 003°16'1 1.6
2018-May-12 17:00N 50°12' W 003°17'1 2.3
2018-May-12 16:31N 50°11' W 003°18'612.0
2018-May-12 16:00N 50°10' W 003°27'612.5
2018-May-12 15:30N 50°08' W 003°37'612.4
2018-May-12 15:00N 50°07' W 003°46'812.2
2018-May-12 14:22N 50°05' W 003°58'412.0
2018-May-12 13:59N 50°03' W 004°05'811.3
2018-May-12 13:17N 50°01' W 004°16'410.8
2018-May-12 12:53N 49°60' W 004°23'410.8
2018-May-12 12:30N 49°59' W 004°29'610.7
2018-May-12 11:58N 49°58' W 004°38'510.5
2018-May-12 11:30N 49°56' W 004°45'9 8.1
2018-May-12 10:20N 49°54' W 004°59'3 7.0
2018-May-12 09:59N 49°54' W 005°03'3 6.7
2018-May-12 09:29N 49°54' W 005°08'13 6.4
2018-May-12 07:23N 49°55' W 005°29'3 7.1
2018-May-12 07:00N 49°55' W 005°33'25 7.7
2018-May-12 03:47N 50°12' W 006°01'511.9
2018-May-12 03:21N 50°17' W 006°02'8811.6
2018-May-11 19:46N 51°20' W 007°38'511.5
2018-May-11 19:20N 51°23' W 007°45'411.5
2018-May-11 19:00N 51°25' W 007°50'611.5
2018-May-11 18:30N 51°29' W 007°57'611.4
2018-May-11 18:00N 51°33' W 008°03'611.3
2018-May-11 17:30N 51°38' W 008°08'5 9.5
2018-May-11 17:00N 51°42' W 008°11'5 9.7
2018-May-11 16:30N 51°46' W 008°15'5 9.6
2018-May-11 16:00N 51°51' W 008°17'4 8.2
2018-May-11 15:30N 51°53' W 008°22'2 3.6
2018-May-11 15:00N 51°54' W 008°25'0 0.0
2018-May-11 14:30N 51°54' W 008°25'0 0.0
2018-May-11 14:00N 51°54' W 008°25'0 0.0
2018-May-11 13:30N 51°54' W 008°25'0 0.0
2018-May-11 13:00N 51°54' W 008°25'0 0.0
2018-May-11 12:30N 51°54' W 008°25'0 0.0
2018-May-11 12:00N 51°54' W 008°25'0 0.0
2018-May-11 11:30N 51°54' W 008°25'0 0.0
2018-May-11 11:00N 51°54' W 008°25'0 0.0
2018-May-11 10:30N 51°54' W 008°25'0 0.0
2018-May-11 10:00N 51°54' W 008°25'0 0.0
2018-May-11 09:30N 51°54' W 008°25'0 0.0
2018-May-11 09:00N 51°54' W 008°25'0 0.0
2018-May-11 08:30N 51°54' W 008°25'0 0.0
2018-May-11 08:00N 51°54' W 008°25'0 0.0
2018-May-11 07:30N 51°54' W 008°25'0 0.0
2018-May-11 07:00N 51°54' W 008°25'0 0.2
2018-May-11 06:30N 51°54' W 008°25'3 6.0
2018-May-11 06:01N 51°53' W 008°20'4 7.4
2018-May-11 05:31N 51°51' W 008°16'5 9.2
2018-May-11 05:01N 51°46' W 008°15'3 6.2
2018-May-11 04:31N 51°44' W 008°12'4 8.1
2018-May-11 04:01N 51°45' W 008°05'4 8.7
2018-May-11 03:30N 51°46' W 007°59'4 8.6
2018-May-11 03:01N 51°48' W 007°52'4 8.9
2018-May-11 02:31N 51°49' W 007°45'5 9.1
2018-May-11 02:01N 51°50' W 007°38'510.6
2018-May-11 01:31N 51°52' W 007°30'611.4
2018-May-11 01:00N 51°54' W 007°21'611.6
2018-May-11 00:30N 51°56' W 007°12'611.8
2018-May-11 00:01N 51°57' W 007°03'611.9
2018-May-10 23:31N 51°59' W 006°54'612.4
2018-May-10 23:01N 52°01' W 006°44'612.9
2018-May-10 22:31N 52°03' W 006°34'713.2
2018-May-10 22:00N 52°05' W 006°24'713.4
2018-May-10 21:30N 52°07' W 006°14'713.2
2018-May-10 21:00N 52°12' W 006°06'713.6
2018-May-10 20:30N 52°18' W 006°03'713.6
2018-May-10 20:00N 52°25' W 005°59'713.1
2018-May-10 19:30N 52°31' W 005°57'712.8
2018-May-10 18:59N 52°38' W 005°53'812.0
2018-May-10 18:21N 52°45' W 005°52'411.8
2018-May-10 17:59N 52°49' W 005°54'511.3
2018-May-10 17:30N 52°55' W 005°54'510.9
2018-May-10 17:00N 53°00' W 005°54'510.7
2018-May-10 16:30N 53°06' W 005°55'611.0
2018-May-10 16:00N 53°11' W 005°58'611.8
2018-May-10 15:30N 53°16' W 006°01'610.5
2018-May-10 14:59N 53°21' W 006°07'  
Track history (hours):
 
Tides and Currents Weather Stations Pressure Air Temp Water Temp Dewpoint Dewpoint Depression Visibility Wind Speed Wind Dir Waves Ship Positions

X-preSS Mulhacen

Last reported at 2018-May-20 13:29 UTC. Time now 2018-May-20 13:46 UTC.
Position N 50°54' W 001°27'.

Length 142 m; draft 6 m.

Type: Ship (hazmat cat B). MMSI: 229630000.

Date/timePositionNaut miles runAvg speedWind from/ knotsBaromVisibWave heightAir tempDewpointWater temp
2018-May-20 13:29N 50°54' W 001°27'0 0.0
2018-May-20 12:59N 50°54' W 001°27'0 0.0
2018-May-20 12:29N 50°54' W 001°27'0 0.0
2018-May-20 11:59N 50°54' W 001°27'1 3.0
2018-May-20 11:30N 50°54' W 001°25'510.4
2018-May-20 11:01N 50°50' W 001°19'4 8.8
2018-May-20 10:31N 50°46' W 001°16'5 9.5
2018-May-20 10:01N 50°46' W 001°09'4 8.9
2018-May-20 09:30N 50°44' W 001°02'4 7.8
2018-May-20 09:01N 50°41' W 000°58'5 9.7
2018-May-20 08:30N 50°36' W 000°60'5 9.4
2018-May-20 08:01N 50°33' W 001°05'510.2
2018-May-20 07:30N 50°31' W 001°12'510.2
2018-May-20 07:00N 50°30' W 001°20'510.0
2018-May-20 06:30N 50°29' W 001°28'3 5.4
2018-May-20 06:01N 50°29' W 001°32'2 3.1
2018-May-20 05:31N 50°29' W 001°34'2 3.1
2018-May-20 05:00N 50°28' W 001°37'1 1.3
2018-May-20 04:30N 50°28' W 001°37'0 0.5
2018-May-20 03:54N 50°28' W 001°38'4 9.1
2018-May-20 03:30N 50°27' W 001°43'6 9.7
2018-May-20 02:55N 50°25' W 001°52'4 9.8
2018-May-20 02:30N 50°24' W 001°58'5 9.8
2018-May-20 02:01N 50°23' W 002°05'5 9.6
2018-May-20 01:29N 50°21' W 002°13'5 9.9
2018-May-20 01:00N 50°20' W 002°20'510.2
2018-May-20 00:30N 50°19' W 002°28'510.4
2018-May-20 00:00N 50°18' W 002°36'510.5
2018-May-19 23:30N 50°17' W 002°44'510.6
2018-May-19 23:00N 50°15' W 002°51'511.0
2018-May-19 22:31N 50°12' W 002°59'611.8
2018-May-19 22:00N 50°11' W 003°08'3 5.1
2018-May-19 21:31N 50°12' W 003°12'1 1.5
2018-May-19 21:00N 50°12' W 003°13'1 1.2
2018-May-19 20:30N 50°12' W 003°14'0 1.0
2018-May-19 20:00N 50°11' W 003°14'0 0.9
2018-May-19 19:30N 50°11' W 003°15'0 0.5
2018-May-19 19:01N 50°11' W 003°15'0 0.2
2018-May-19 18:30N 50°11' W 003°15'0 0.5
2018-May-19 18:01N 50°11' W 003°14'1 1.1
2018-May-19 17:30N 50°11' W 003°14'1 1.4
2018-May-19 17:01N 50°11' W 003°13'1 2.9
2018-May-19 16:30N 50°11' W 003°15'510.7
2018-May-19 16:00N 50°10' W 003°23'510.8
2018-May-19 15:30N 50°09' W 003°31'510.7
2018-May-19 15:00N 50°08' W 003°40'610.7
2018-May-19 14:30N 50°07' W 003°48'511.2
2018-May-19 14:00N 50°05' W 003°56'611.6
2018-May-19 13:30N 50°03' W 004°05'611.9
2018-May-19 13:00N 50°02' W 004°14'611.9
2018-May-19 12:30N 50°00' W 004°23'612.1
2018-May-19 12:00N 49°58' W 004°32'612.3
2018-May-19 11:30N 49°57' W 004°41'612.5
2018-May-19 11:00N 49°55' W 004°50'711.7
2018-May-19 10:23N 49°54' W 005°01'411.9
2018-May-19 10:00N 49°54' W 005°08'912.4
2018-May-19 09:19N 49°54' W 005°22'512.2
2018-May-19 08:52N 49°55' W 005°30'1212.3
2018-May-19 07:55N 49°55' W 005°48'611.9
2018-May-19 07:25N 49°56' W 005°57'7 9.0
2018-May-19 06:41N 50°02' W 006°01'210.0
2018-May-19 06:30N 50°04' W 006°01'510.0
2018-May-19 06:00N 50°09' W 006°01'5 9.8
2018-May-19 05:30N 50°13' W 006°01'510.0
2018-May-19 05:00N 50°18' W 006°01'510.1
2018-May-19 04:30N 50°23' W 006°05'510.9
2018-May-19 04:00N 50°27' W 006°11'510.9
2018-May-19 03:30N 50°30' W 006°17'510.9
2018-May-19 03:00N 50°34' W 006°23'510.8
2018-May-19 02:30N 50°38' W 006°29'510.7
2018-May-19 02:00N 50°42' W 006°36'510.0
2018-May-19 01:30N 50°45' W 006°41'510.9
2018-May-19 01:00N 50°49' W 006°47'510.9
2018-May-19 00:30N 50°53' W 006°53'510.9
2018-May-19 00:00N 50°57' W 006°59'510.9
2018-May-18 23:30N 51°01' W 007°05'510.9
2018-May-18 23:00N 51°05' W 007°11'511.0
2018-May-18 22:30N 51°08' W 007°18'611.0
2018-May-18 22:00N 51°12' W 007°24'611.1
2018-May-18 21:30N 51°16' W 007°30'611.1
2018-May-18 21:00N 51°21' W 007°36'611.1
2018-May-18 20:30N 51°25' W 007°42'611.0
2018-May-18 20:00N 51°29' W 007°48'611.1
2018-May-18 19:30N 51°33' W 007°54'611.2
2018-May-18 19:00N 51°36' W 008°01'611.1
2018-May-18 18:30N 51°40' W 008°07'510.8
2018-May-18 18:00N 51°44' W 008°13'5 9.6
2018-May-18 17:30N 51°49' W 008°16'3 6.2
2018-May-18 17:00N 51°51' W 008°20'4 8.2
2018-May-18 16:30N 51°54' W 008°24'1 1.7
2018-May-18 16:01N 51°54' W 008°25'0 0.0
2018-May-18 15:28N 51°54' W 008°25'0 0.0
2018-May-18 14:58N 51°54' W 008°25'0 0.0
2018-May-18 14:28N 51°54' W 008°25'0 0.0
2018-May-18 13:58N 51°54' W 008°25'0 0.0
2018-May-18 13:31N 51°54' W 008°25'0 0.0
2018-May-18 13:01N 51°54' W 008°25'0 0.0
2018-May-18 12:28N 51°54' W 008°25'0 0.0
2018-May-18 11:58N 51°54' W 008°25'0 0.0
2018-May-18 11:28N 51°54' W 008°25'0 0.0
2018-May-18 11:01N 51°54' W 008°25'0 0.0
2018-May-18 10:31N 51°54' W 008°25'0 0.0
2018-May-18 09:58N 51°54' W 008°25'0 0.0
2018-May-18 09:28N 51°54' W 008°25'0 0.0
2018-May-18 09:01N 51°54' W 008°25'0 0.0
2018-May-18 08:31N 51°54' W 008°25'0 0.0
2018-May-18 07:58N 51°54' W 008°25'0 0.0
2018-May-18 07:31N 51°54' W 008°25'0 0.0
2018-May-18 06:58N 51°54' W 008°25'0 0.1
2018-May-18 06:30N 51°54' W 008°25'3 5.7
2018-May-18 06:00N 51°53' W 008°21'3 6.9
2018-May-18 05:30N 51°51' W 008°16'611.2
2018-May-18 05:00N 51°45' W 008°15'3 6.8
2018-May-18 04:31N 51°44' W 008°10'510.3
2018-May-18 04:01N 51°45' W 008°02'510.6
2018-May-18 03:30N 51°47' W 007°54'510.8
2018-May-18 03:00N 51°49' W 007°46'510.8
2018-May-18 02:30N 51°50' W 007°37'611.0
2018-May-18 02:00N 51°52' W 007°29'611.3
2018-May-18 01:31N 51°54' W 007°20'611.5
2018-May-18 01:00N 51°55' W 007°11'611.6
2018-May-18 00:30N 51°57' W 007°02'611.4
2018-May-18 00:01N 51°59' W 006°53'611.1
2018-May-17 23:30N 52°00' W 006°45'611.9
2018-May-17 23:01N 52°02' W 006°36'612.0
2018-May-17 22:30N 52°05' W 006°27'611.6
2018-May-17 22:00N 52°07' W 006°18'810.3
2018-May-17 21:11N 52°11' W 006°06'6 9.8
2018-May-17 20:32N 52°17' W 006°03'010.1
2018-May-17 20:30N 52°18' W 006°03'510.2
2018-May-17 19:59N 52°23' W 006°01'1311.2
2018-May-17 18:48N 52°36' W 005°55'412.6
2018-May-17 18:28N 52°39' W 005°53'612.7
2018-May-17 18:00N 52°45' W 005°52'713.3
2018-May-17 17:30N 52°52' W 005°53'714.4
2018-May-17 17:00N 52°59' W 005°55'714.8
2018-May-17 16:30N 53°07' W 005°56'714.4
2018-May-17 16:00N 53°13' W 005°59'713.5
2018-May-17 15:30N 53°19' W 006°05'5 9.4
2018-May-17 15:00N 53°21' W 006°12'0 0.0
2018-May-17 10:49N 53°21' W 006°13'0 0.2
2018-May-17 09:30N 53°21' W 006°13'0 0.0
2018-May-17 08:57N 53°21' W 006°13'0 0.0
2018-May-17 07:45N 53°21' W 006°13'0 0.0
2018-May-17 07:18N 53°21' W 006°13'0 0.0
2018-May-17 04:37N 53°21' W 006°13'0 0.0
2018-May-17 04:30N 53°21' W 006°13'0 0.1
2018-May-16 23:59N 53°21' W 006°12'0 0.0
2018-May-16 22:50N 53°21' W 006°12'0 0.0
2018-May-16 22:20N 53°21' W 006°12'0 0.0
2018-May-16 21:53N 53°21' W 006°12'0 0.0
2018-May-16 21:14N 53°21' W 006°12'0 0.0
2018-May-16 20:44N 53°21' W 006°12'0 0.0
2018-May-16 20:20N 53°21' W 006°12'0 0.0
2018-May-16 19:20N 53°21' W 006°12'0 0.0
2018-May-16 18:47N 53°21' W 006°12'0 0.0
2018-May-16 18:17N 53°21' W 006°12'0 0.0
2018-May-16 17:05N 53°21' W 006°12'0 0.0
2018-May-16 15:56N 53°21' W 006°12'0 0.0
2018-May-16 14:08N 53°21' W 006°12'0 0.0
2018-May-16 13:56N 53°21' W 006°12'0 0.0
2018-May-16 12:32N 53°21' W 006°12'0 0.0
2018-May-16 10:23N 53°21' W 006°12'0 0.0
2018-May-16 08:14N 53°21' W 006°12'0 0.0
2018-May-16 07:53N 53°21' W 006°12'1 1.1
2018-May-16 07:01N 53°21' W 006°11'1 9.3
2018-May-16 06:57N 53°21' W 006°10'5 9.0
2018-May-16 06:26N 53°19' W 006°03'4 8.8
2018-May-16 05:58N 53°15' W 005°60'4 9.2
2018-May-16 05:30N 53°11' W 005°58'510.0
2018-May-16 05:00N 53°06' W 005°56'510.3
2018-May-16 04:30N 53°01' W 005°55'510.1
2018-May-16 04:00N 52°56' W 005°53'510.0
2018-May-16 03:30N 52°51' W 005°52'610.3
2018-May-16 02:58N 52°46' W 005°51'8211.8
2018-May-15 20:03N 51°24' W 005°52'215.2
2018-May-15 19:56N 51°22' W 005°52'614.9
2018-May-15 19:30N 51°16' W 005°52'815.0
2018-May-15 19:00N 51°08' W 005°52'815.0
2018-May-15 18:30N 51°01' W 005°53'714.9
2018-May-15 18:00N 50°53' W 005°54'814.9
2018-May-15 17:30N 50°46' W 005°53'1015.0
2018-May-15 16:51N 50°36' W 005°53'615.1
2018-May-15 16:29N 50°31' W 005°53'715.2
2018-May-15 16:00N 50°23' W 005°52'814.8
2018-May-15 15:30N 50°16' W 005°52'4410.0
2018-May-15 11:03N 49°55' W 004°51'113.4
2018-May-15 10:58N 49°55' W 004°50'613.4
2018-May-15 10:30N 49°57' W 004°40'714.8
2018-May-15 10:00N 49°59' W 004°29'612.9
2018-May-15 09:30N 50°00' W 004°20'612.5
2018-May-15 09:00N 50°02' W 004°10'612.0
2018-May-15 08:30N 50°04' W 004°01'611.3
2018-May-15 08:00N 50°05' W 003°53'611.1
2018-May-15 07:30N 50°07' W 003°44'510.5
2018-May-15 07:00N 50°08' W 003°37'510.3
2018-May-15 06:30N 50°10' W 003°29'510.6
2018-May-15 06:01N 50°12' W 003°21'510.9
2018-May-15 05:30N 50°14' W 003°13'510.9
2018-May-15 05:00N 50°15' W 003°05'611.3
2018-May-15 04:30N 50°17' W 002°57'611.8
2018-May-15 04:00N 50°19' W 002°48'612.5
2018-May-15 03:31N 50°21' W 002°39'713.0
2018-May-15 03:01N 50°26' W 002°31'714.3
2018-May-15 02:30N 50°31' W 002°24'5 9.3
2018-May-15 02:00N 50°36' W 002°25'0 0.2
2018-May-15 01:22N 50°36' W 002°25'0 0.0
2018-May-15 00:58N 50°36' W 002°25'0 0.0
2018-May-15 00:28N 50°36' W 002°25'0 0.0
2018-May-14 23:58N 50°36' W 002°25'0 0.0
2018-May-14 23:28N 50°36' W 002°25'0 0.0
2018-May-14 22:58N 50°36' W 002°25'0 0.0
2018-May-14 22:28N 50°36' W 002°25'0 0.0
2018-May-14 22:00N 50°36' W 002°25'0 0.2
2018-May-14 21:29N 50°36' W 002°25'1 2.3
2018-May-14 20:58N 50°35' W 002°23'4 8.8
2018-May-14 20:30N 50°32' W 002°19'911.7
2018-May-14 19:44N 50°30' W 002°05'311.2
2018-May-14 19:30N 50°30' W 002°01'510.6
2018-May-14 19:00N 50°32' W 001°54'611.1
2018-May-14 18:30N 50°35' W 001°46'611.7
2018-May-14 18:01N 50°38' W 001°39'610.9
2018-May-14 17:30N 50°42' W 001°33'5 9.2
2018-May-14 17:00N 50°44' W 001°26'5 9.7
2018-May-14 16:30N 50°46' W 001°20'4 8.0
2018-May-14 16:00N 50°50' W 001°20'5 9.2
2018-May-14 15:30N 50°54' W 001°25'2 2.9
2018-May-14 14:57N 50°54' W 001°27'0 0.0
2018-May-14 14:27N 50°54' W 001°27'0 0.0
2018-May-14 14:00N 50°54' W 001°27'0 0.0
2018-May-14 13:27N 50°54' W 001°27'0 0.0
2018-May-14 13:00N 50°54' W 001°27'0 0.0
2018-May-14 12:30N 50°54' W 001°27'0 0.0
2018-May-14 11:54N 50°54' W 001°27'0 0.0
2018-May-14 11:30N 50°54' W 001°27'0 0.0
2018-May-14 11:00N 50°54' W 001°27'0 0.0
2018-May-14 10:30N 50°54' W 001°27'0 0.0
2018-May-14 10:00N 50°54' W 001°27'0 0.0
2018-May-14 09:30N 50°54' W 001°27'0 0.0
2018-May-14 09:00N 50°54' W 001°27'0 0.0
2018-May-14 08:30N 50°54' W 001°27'0 0.0
2018-May-14 08:00N 50°54' W 001°27'0 0.0
2018-May-14 07:30N 50°54' W 001°27'0 0.0
2018-May-14 07:00N 50°54' W 001°27'0 0.0
2018-May-14 06:21N 50°54' W 001°27'0 0.0
2018-May-14 05:51N 50°54' W 001°27'0 0.0
2018-May-14 05:30N 50°54' W 001°27'0 0.0
2018-May-14 05:00N 50°54' W 001°27'0 0.0
2018-May-14 04:30N 50°54' W 001°27'0 0.0
2018-May-14 03:54N 50°54' W 001°27'0 0.0
2018-May-14 03:30N 50°54' W 001°27'0 0.0
2018-May-14 03:00N 50°54' W 001°27'0 0.0
2018-May-14 02:30N 50°54' W 001°27'0 0.0
2018-May-14 02:00N 50°54' W 001°27'0 0.0
2018-May-14 01:27N 50°54' W 001°27'0 0.0
2018-May-14 00:57N 50°54' W 001°27'0 0.0
2018-May-14 00:30N 50°54' W 001°27'0 0.0
2018-May-13 23:57N 50°54' W 001°27'0 0.0
2018-May-13 23:30N 50°54' W 001°27'0 0.0
2018-May-13 23:00N 50°54' W 001°27'0 0.0
2018-May-13 22:30N 50°54' W 001°27'0 0.0
2018-May-13 22:00N 50°54' W 001°27'0 0.0
2018-May-13 21:30N 50°54' W 001°27'0 0.0
2018-May-13 21:00N 50°54' W 001°27'0 0.0
2018-May-13 20:30N 50°54' W 001°27'0 0.0
2018-May-13 20:00N 50°54' W 001°27'0 0.0
2018-May-13 19:30N 50°54' W 001°27'0 0.0
2018-May-13 19:00N 50°54' W 001°27'0 0.0
2018-May-13 18:30N 50°54' W 001°27'0 0.0
2018-May-13 18:00N 50°54' W 001°27'0 0.0
2018-May-13 17:30N 50°54' W 001°27'0 0.0
2018-May-13 17:00N 50°54' W 001°27'0 0.0
2018-May-13 16:27N 50°54' W 001°27'0 0.0
2018-May-13 16:00N 50°54' W 001°27'0 0.0
2018-May-13 15:27N 50°54' W 001°27'0 0.0
2018-May-13 14:57N 50°54' W 001°27'0 0.0
2018-May-13 14:24N 50°54' W 001°27'0 0.0
2018-May-13 13:54N 50°54' W 001°27'0 0.0
2018-May-13 13:24N 50°54' W 001°27'1 3.5
2018-May-13 13:00N 50°54' W 001°25'4 8.6
2018-May-13 12:30N 50°51' W 001°20'611.6
2018-May-13 12:00N 50°47' W 001°13'510.4
2018-May-13 11:30N 50°45' W 001°06'5 9.7
2018-May-13 11:00N 50°43' W 000°59'510.4
2018-May-13 10:30N 50°37' W 000°59'510.7
2018-May-13 10:00N 50°33' W 001°03'611.4
2018-May-13 09:30N 50°31' W 001°12'510.9
2018-May-13 09:00N 50°30' W 001°20'611.8
2018-May-13 08:30N 50°29' W 001°29'814.3
2018-May-13 07:58N 50°27' W 001°41'715.2
2018-May-13 07:30N 50°25' W 001°52'815.7
2018-May-13 07:00N 50°23' W 002°04'1415.8
2018-May-13 06:06N 50°19' W 002°26'515.4
2018-May-13 05:47N 50°19' W 002°33'415.1
2018-May-13 05:30N 50°18' W 002°39'714.1
2018-May-13 05:00N 50°17' W 002°50'1 2.7
2018-May-13 04:28N 50°16' W 002°52'1 1.6
2018-May-13 04:01N 50°16' W 002°54'1 1.3
2018-May-13 03:31N 50°16' W 002°54'0 0.9
2018-May-13 03:01N 50°16' W 002°55'0 1.0
2018-May-13 02:31N 50°15' W 002°55'4 7.1
2018-May-13 02:00N 50°15' W 003°01'5 9.7
2018-May-13 01:30N 50°14' W 003°08'4 7.4
2018-May-13 01:00N 50°13' W 003°14'0 0.9
2018-May-13 00:31N 50°13' W 003°14'1 1.0
2018-May-13 00:00N 50°14' W 003°13'1 1.1
2018-May-12 23:30N 50°14' W 003°12'0 0.9
2018-May-12 23:01N 50°14' W 003°12'0 0.7
2018-May-12 22:31N 50°14' W 003°11'0 0.4
2018-May-12 22:00N 50°15' W 003°11'0 0.1
2018-May-12 21:31N 50°15' W 003°11'0 0.1
2018-May-12 21:01N 50°15' W 003°11'0 0.5
2018-May-12 20:31N 50°14' W 003°11'0 0.7
2018-May-12 20:00N 50°14' W 003°12'0 1.0
2018-May-12 19:30N 50°14' W 003°13'1 1.1
2018-May-12 19:00N 50°14' W 003°13'1 1.3
2018-May-12 18:30N 50°13' W 003°14'1 1.5
2018-May-12 18:00N 50°13' W 003°15'1 1.6
2018-May-12 17:30N 50°12' W 003°16'1 1.6
2018-May-12 17:00N 50°12' W 003°17'1 2.3
2018-May-12 16:31N 50°11' W 003°18'612.0
2018-May-12 16:00N 50°10' W 003°27'612.5
2018-May-12 15:30N 50°08' W 003°37'612.4
2018-May-12 15:00N 50°07' W 003°46'812.2
2018-May-12 14:22N 50°05' W 003°58'412.0
2018-May-12 13:59N 50°03' W 004°05'811.3
2018-May-12 13:17N 50°01' W 004°16'410.8
2018-May-12 12:53N 49°60' W 004°23'410.8
2018-May-12 12:30N 49°59' W 004°29'610.7
2018-May-12 11:58N 49°58' W 004°38'510.5
2018-May-12 11:30N 49°56' W 004°45'9 8.1
2018-May-12 10:20N 49°54' W 004°59'3 7.0
2018-May-12 09:59N 49°54' W 005°03'3 6.7
2018-May-12 09:29N 49°54' W 005°08'13 6.4
2018-May-12 07:23N 49°55' W 005°29'3 7.1
2018-May-12 07:00N 49°55' W 005°33'25 7.7
2018-May-12 03:47N 50°12' W 006°01'511.9
2018-May-12 03:21N 50°17' W 006°02'8811.6
2018-May-11 19:46N 51°20' W 007°38'511.5
2018-May-11 19:20N 51°23' W 007°45'411.5
2018-May-11 19:00N 51°25' W 007°50'611.5
2018-May-11 18:30N 51°29' W 007°57'611.4
2018-May-11 18:00N 51°33' W 008°03'611.3
2018-May-11 17:30N 51°38' W 008°08'5 9.5
2018-May-11 17:00N 51°42' W 008°11'5 9.7
2018-May-11 16:30N 51°46' W 008°15'5 9.6
2018-May-11 16:00N 51°51' W 008°17'4 8.2
2018-May-11 15:30N 51°53' W 008°22'2 3.6
2018-May-11 15:00N 51°54' W 008°25'0 0.0
2018-May-11 14:30N 51°54' W 008°25'0 0.0
2018-May-11 14:00N 51°54' W 008°25'0 0.0
2018-May-11 13:30N 51°54' W 008°25'0 0.0
2018-May-11 13:00N 51°54' W 008°25'0 0.0
2018-May-11 12:30N 51°54' W 008°25'0 0.0
2018-May-11 12:00N 51°54' W 008°25'0 0.0
2018-May-11 11:30N 51°54' W 008°25'0 0.0
2018-May-11 11:00N 51°54' W 008°25'0 0.0
2018-May-11 10:30N 51°54' W 008°25'0 0.0
2018-May-11 10:00N 51°54' W 008°25'0 0.0
2018-May-11 09:30N 51°54' W 008°25'0 0.0
2018-May-11 09:00N 51°54' W 008°25'0 0.0
2018-May-11 08:30N 51°54' W 008°25'0 0.0
2018-May-11 08:00N 51°54' W 008°25'0 0.0
2018-May-11 07:30N 51°54' W 008°25'0 0.0
2018-May-11 07:00N 51°54' W 008°25'0 0.2
2018-May-11 06:30N 51°54' W 008°25'3 6.0
2018-May-11 06:01N 51°53' W 008°20'4 7.4
2018-May-11 05:31N 51°51' W 008°16'5 9.2
2018-May-11 05:01N 51°46' W 008°15'3 6.2
2018-May-11 04:31N 51°44' W 008°12'4 8.1
2018-May-11 04:01N 51°45' W 008°05'4 8.7
2018-May-11 03:30N 51°46' W 007°59'4 8.6
2018-May-11 03:01N 51°48' W 007°52'4 8.9
2018-May-11 02:31N 51°49' W 007°45'5 9.1
2018-May-11 02:01N 51°50' W 007°38'510.6
2018-May-11 01:31N 51°52' W 007°30'611.4
2018-May-11 01:00N 51°54' W 007°21'611.6
2018-May-11 00:30N 51°56' W 007°12'611.8
2018-May-11 00:01N 51°57' W 007°03'611.9
2018-May-10 23:31N 51°59' W 006°54'612.4
2018-May-10 23:01N 52°01' W 006°44'612.9
2018-May-10 22:31N 52°03' W 006°34'713.2
2018-May-10 22:00N 52°05' W 006°24'713.4
2018-May-10 21:30N 52°07' W 006°14'713.2
2018-May-10 21:00N 52°12' W 006°06'713.6
2018-May-10 20:30N 52°18' W 006°03'713.6
2018-May-10 20:00N 52°25' W 005°59'713.1
2018-May-10 19:30N 52°31' W 005°57'712.8
2018-May-10 18:59N 52°38' W 005°53'812.0
2018-May-10 18:21N 52°45' W 005°52'411.8
2018-May-10 17:59N 52°49' W 005°54'511.3
2018-May-10 17:30N 52°55' W 005°54'510.9
2018-May-10 17:00N 53°00' W 005°54'510.7
2018-May-10 16:30N 53°06' W 005°55'611.0
2018-May-10 16:00N 53°11' W 005°58'611.8
2018-May-10 15:30N 53°16' W 006°01'610.5
2018-May-10 14:59N 53°21' W 006°07'  

Dump ship's entire track history